Thursday, December 12, 2019, 3:48 PM CST
Back to Local

KT82, Fredericksburg, Gillespie County Airport

Location: Fredericksburg, TX, United States Lat: 30.244
Local Time: 3:48 PM CST (21:48 GMT) Lon: -98.909
Time Zone: US/Central Elev: 1696 ft

Show me the last for .
Show Decoded

2019-12-12 15:15 METAR KT82 122115Z AUTO 20009G15KT 10SM CLR 16/01 A3010 RMK AO2 T01610013 =
2019-12-12 14:55 METAR KT82 122055Z AUTO 19009KT 10SM CLR 16/01 A3011 RMK AO2 T01610012 =
2019-12-12 14:35 METAR KT82 122035Z AUTO 22011KT 10SM CLR 16/01 A3011 RMK AO2 T01600014 =
2019-12-12 14:15 METAR KT82 122015Z AUTO 20010G15KT 10SM CLR 15/02 A3012 RMK AO2 T01540017 =
2019-12-12 13:55 METAR KT82 121955Z AUTO 23008KT 10SM CLR 15/02 A3013 RMK AO2 T01510018 =
2019-12-12 13:35 METAR KT82 121935Z AUTO 24009KT 10SM CLR 15/02 A3014 RMK AO2 T01450018 =
2019-12-12 13:15 METAR KT82 121915Z AUTO 21009KT 10SM CLR 14/02 A3016 RMK AO2 T01420020 =
2019-12-12 12:55 METAR KT82 121855Z AUTO 21010KT 10SM CLR 14/01 A3017 RMK AO2 T01350010 =
2019-12-12 12:35 METAR KT82 121835Z AUTO 21009KT 10SM CLR 13/02 A3018 RMK AO2 T01290022 =
2019-12-12 12:15 METAR KT82 121815Z AUTO 20007KT 10SM CLR 13/03 A3020 RMK AO2 T01250033 =
2019-12-12 11:55 METAR KT82 121755Z AUTO 20009KT 10SM CLR 12/04 A3022 RMK AO2 T01170037 10117
                 21013 =
2019-12-12 11:35 METAR KT82 121735Z AUTO 20010KT 10SM CLR 11/04 A3023 RMK AO2 T01070038 =
2019-12-12 11:15 METAR KT82 121715Z AUTO 21012KT 10SM CLR 10/04 A3024 RMK AO2 T00980041 =
2019-12-12 10:55 METAR KT82 121655Z AUTO 19009KT 10SM CLR 09/04 A3026 RMK AO2 T00870041 =
2019-12-12 10:35 METAR KT82 121635Z AUTO 21007KT 10SM BKN017 09/04 A3026 RMK AO2 T00850044 =
2019-12-12 10:15 METAR KT82 121615Z AUTO 00000KT 10SM OVC015 07/03 A3027 RMK AO2 T00670031 =
2019-12-12 09:55 METAR KT82 121555Z AUTO 00000KT 10SM OVC015 06/03 A3028 RMK AO2 T00610027 =
2019-12-12 09:35 METAR KT82 121535Z AUTO 00000KT 10SM OVC015 06/03 A3028 RMK AO2 T00550028 =
2019-12-12 09:15 METAR KT82 121515Z AUTO 00000KT 10SM OVC015 05/03 A3027 RMK AO2 T00480026 =
2019-12-12 08:55 METAR KT82 121455Z AUTO 00000KT 10SM OVC015 05/02 A3028 RMK AO2 T00470021 =
2019-12-12 08:35 METAR KT82 121435Z AUTO 00000KT 10SM OVC015 04/03 A3028 RMK AO2 T00400026 =
2019-12-12 08:15 METAR KT82 121415Z AUTO 00000KT 10SM OVC015 03/02 A3027 RMK AO2 T00310019 =
2019-12-12 07:55 METAR KT82 121355Z AUTO 00000KT 10SM OVC015 02/01 A3026 RMK AO2 T00190005 =
2019-12-12 07:35 METAR KT82 121335Z AUTO 00000KT 10SM OVC015 02/01 A3026 RMK AO2 T00180006 =
2019-12-12 07:15 METAR KT82 121315Z AUTO 00000KT 10SM OVC015 01/00 A3026 RMK AO2 T00120003 =
2019-12-12 06:55 METAR KT82 121255Z AUTO 31004KT 10SM OVC015 00/00 A3026 RMK AO2 T00041003 =
2019-12-12 06:35 METAR KT82 121235Z AUTO 00000KT 10SM OVC015 00/M01 A3025 RMK AO2 T00001008 =
2019-12-12 06:15 METAR KT82 121215Z AUTO 00000KT 10SM OVC015 00/M01 A3025 RMK AO2 T10021011 =
2019-12-12 05:55 METAR KT82 121155Z AUTO 00000KT 10SM OVC015 M01/M02 A3026 RMK AO2 T10131023
                 10005 21019 =
2019-12-12 05:35 METAR KT82 121135Z AUTO 00000KT 10SM SCT015 M01/M02 A3025 RMK AO2 T10101020 =
2019-12-12 05:15 METAR KT82 121115Z AUTO 28003KT 10SM CLR M01/M02 A3024 RMK AO2 T10111022 =
2019-12-12 04:55 METAR KT82 121055Z AUTO 00000KT 10SM CLR M01/M02 A3025 RMK AO2 T10111019 =
2019-12-12 04:35 METAR KT82 121035Z AUTO 00000KT 10SM CLR M02/M02 A3025 RMK AO2 T10161025 =
2019-12-12 04:15 METAR KT82 121015Z AUTO 00000KT 10SM CLR 00/M02 A3026 RMK AO2 T10041016 =
2019-12-12 03:55 METAR KT82 120955Z AUTO 00000KT 10SM CLR M01/M02 A3028 RMK AO2 T10071016 =
2019-12-12 03:35 METAR KT82 120935Z AUTO 00000KT 10SM CLR M01/M02 A3028 RMK AO2 T10151024 =
2019-12-12 03:15 METAR KT82 120915Z AUTO 00000KT 10SM CLR M02/M03 A3029 RMK AO2 T10171026 =
2019-12-12 02:55 METAR KT82 120855Z AUTO 00000KT 10SM CLR M02/M02 A3030 RMK AO2 T10161025 =
2019-12-12 02:35 METAR KT82 120835Z AUTO 00000KT 10SM CLR M02/M03 A3031 RMK AO2 T10181027 =
2019-12-12 02:15 METAR KT82 120815Z AUTO 00000KT 10SM CLR M01/M02 A3032 RMK AO2 T10141024 =
2019-12-12 01:55 METAR KT82 120755Z AUTO 00000KT 10SM CLR M01/M02 A3032 RMK AO2 T10091016 =
2019-12-12 01:35 METAR KT82 120735Z AUTO 00000KT 10SM CLR M01/M02 A3033 RMK AO2 T10121020 =
2019-12-12 01:15 METAR KT82 120715Z AUTO 00000KT 10SM CLR M01/M02 A3034 RMK AO2 T10131020 =
2019-12-12 00:55 METAR KT82 120655Z AUTO 00000KT 10SM CLR M01/M02 A3035 RMK AO2 T10111019 =
2019-12-12 00:35 METAR KT82 120635Z AUTO 00000KT 10SM CLR M01/M01 A3036 RMK AO2 T10061015 =
2019-12-12 00:15 METAR KT82 120615Z AUTO 00000KT 10SM CLR M01/M02 A3037 RMK AO2 T10101020 =
2019-12-11 23:55 METAR KT82 120555Z AUTO 00000KT 10SM CLR 00/M01 A3038 RMK AO2 T00001011 10078
                 21002 401301002 =
2019-12-11 23:35 METAR KT82 120535Z AUTO 00000KT 10SM CLR 00/M01 A3038 RMK AO2 T00001011 =
2019-12-11 23:15 METAR KT82 120515Z AUTO 00000KT 10SM CLR 00/M01 A3039 RMK AO2 T00001009 =
2019-12-11 22:55 METAR KT82 120455Z AUTO 00000KT 10SM CLR 00/M01 A3039 RMK AO2 T00001009 =
2019-12-11 22:35 METAR KT82 120435Z AUTO 00000KT 10SM CLR 00/M01 A3039 RMK AO2 T00021006 =
2019-12-11 22:15 METAR KT82 120415Z AUTO 00000KT 10SM CLR 01/00 A3038 RMK AO2 T00061004 =
2019-12-11 21:55 METAR KT82 120355Z AUTO 00000KT 10SM CLR 02/00 A3039 RMK AO2 T00160001 =
2019-12-11 21:35 METAR KT82 120335Z AUTO 00000KT 10SM CLR 02/00 A3039 RMK AO2 T00230003 =
2019-12-11 21:15 METAR KT82 120315Z AUTO 00000KT 10SM CLR 03/00 A3039 RMK AO2 T00260002 =
2019-12-11 20:55 METAR KT82 120255Z AUTO 00000KT 10SM CLR 03/01 A3038 RMK AO2 T00330007 =
2019-12-11 20:35 METAR KT82 120235Z AUTO 00000KT 10SM CLR 04/01 A3039 RMK AO2 T00350007 =
2019-12-11 20:15 METAR KT82 120215Z AUTO 00000KT 10SM CLR 04/01 A3039 RMK AO2 T00400007 =
2019-12-11 19:55 METAR KT82 120155Z AUTO 07003KT 10SM CLR 05/01 A3039 RMK AO2 T00450007 =
2019-12-11 19:35 METAR KT82 120135Z AUTO 00000KT 10SM CLR 05/01 A3039 RMK AO2 T00490007 =
2019-12-11 19:15 METAR KT82 120115Z AUTO 00000KT 10SM CLR 05/01 A3038 RMK AO2 T00520006 =
2019-12-11 18:55 METAR KT82 120055Z AUTO 00000KT 10SM CLR 06/01 A3038 RMK AO2 T00570007 =
2019-12-11 18:35 METAR KT82 120035Z AUTO 00000KT 10SM CLR 06/01 A3038 RMK AO2 T00620007 =
2019-12-11 18:15 METAR KT82 120015Z AUTO 00000KT 10SM CLR 07/01 A3038 RMK AO2 T00700007 =
2019-12-11 17:55 METAR KT82 112355Z AUTO 11003KT 10SM CLR 08/01 A3038 RMK AO2 T00790007 10130
                 20079 =
2019-12-11 17:35 METAR KT82 112335Z AUTO 10003KT 10SM CLR 09/01 A3038 RMK AO2 T00900005 =
2019-12-11 17:15 METAR KT82 112315Z AUTO 10004KT 10SM CLR 10/00 A3038 RMK AO2 T01010004 =
2019-12-11 16:55 METAR KT82 112255Z AUTO 10005KT 10SM CLR 11/00 A3038 RMK AO2 T01080000 =
2019-12-11 16:35 METAR KT82 112235Z AUTO 09005KT 10SM CLR 12/00 A3038 RMK AO2 T01150000 =
2019-12-11 16:15 METAR KT82 112215Z AUTO 09006KT 10SM CLR 12/00 A3038 RMK AO2 T01170000 =
2019-12-11 15:55 METAR KT82 112155Z AUTO 10005KT 10SM CLR 12/00 A3039 RMK AO2 T01201004 =

Support USWX by starting your Amazon purchase here.